National Weather Service United States Department of Commerce

 

Aviation Weather Center TAFs Radar Soundings/Model Data Soaring
NWS Wichita Home Page Hazardous Weather Outlook NWS Graphical Forecasts

 

Wichita (ICT)
Hutchinson (HUT)
Tactical Decision Aid
 
Tactical Decision Aid
 

 
000
FTUS43 KICT 201720
TAFICT
TAF
KICT 201720Z 2018/2118 19015G25KT P6SM SKC
FM210400 17015KT P6SM SCT150 WS020/20045KT
FM211400 19020KT P6SM FEW150=
 
000
FTUS43 KICT 201720
TAFHUT
TAF
KHUT 201720Z 2018/2118 18015G25KT P6SM SKC
FM210300 17015KT P6SM SCT150 WS020/19045KT
FM211300 18015KT P6SM FEW150=
Salina (SLN) Russell (RSL)
Tactical Decision Aid
Tactical Decision Aid

 
000
FTUS43 KICT 201720
TAFSLN
TAF
KSLN 201720Z 2018/2118 18015G25KT P6SM SKC
FM210300 17015KT P6SM SCT150 WS020/20050KT
FM211300 18015KT P6SM SCT150=

 
000
FTUS43 KICT 201720
TAFRSL
TAF
KRSL 201720Z 2018/2118 20015G25KT P6SM SKC
FM210300 16015KT P6SM SCT150 WS020/20045KT
FM211100 19015KT P6SM SCT200=
Chanute (CNU) Great Bend (GBD)
Tactical Decision Aid
Tactical Decision Aid

 
000
FTUS43 KICT 201720
TAFCNU
TAF
KCNU 201720Z 2018/2118 20015KT P6SM SKC
FM210700 18010KT P6SM SCT150 WS020/20045KT
FM211500 18020G30KT P6SM SCT150=

 
000
FTUS43 KICT 201720
TAFGBD
TAF
KGBD 201720Z 2018/2118 20015G25KT P6SM SKC
FM210300 17015KT P6SM FEW150 WS020/19045KT
FM211100 19015KT P6SM FEW150=
 
NWS Wichita Aviation Forecast Discussion

 

 

IMPORTANT: This page is a tool to help pilots better visualize weather and weather-related hazards, and is not a substitute for a weather briefing obtained from a Flight Service Station (1-800-WXBRIEF). The information contained here does not meet the FAA requirements for a pre-flight weather brief. Therefore, it is important that pilots call and obtain a briefing from an FAA Flight Service Specialist.